sensor_id;sensor_type;location;lat;lon;timestamp;pressure;altitude;pressure_sealevel;temperature;humidity
20023;BME280;10172;42.054;24.546;2023-03-04T00:00:31;98244.00;;;9.57;100.00
20023;BME280;10172;42.054;24.546;2023-03-04T00:02:56;98207.06;;;9.40;100.00
20023;BME280;10172;42.054;24.546;2023-03-04T00:05:22;98213.53;;;9.63;100.00
20023;BME280;10172;42.054;24.546;2023-03-04T00:07:47;98211.38;;;9.55;100.00
20023;BME280;10172;42.054;24.546;2023-03-04T00:10:12;98219.84;;;9.48;100.00
20023;BME280;10172;42.054;24.546;2023-03-04T00:12:38;98200.41;;;9.47;100.00
20023;BME280;10172;42.054;24.546;2023-03-04T00:15:04;98207.38;;;9.62;100.00
20023;BME280;10172;42.054;24.546;2023-03-04T00:17:29;98224.44;;;9.73;100.00
20023;BME280;10172;42.054;24.546;2023-03-04T00:19:56;98168.19;;;9.39;100.00
20023;BME280;10172;42.054;24.546;2023-03-04T00:22:22;98199.91;;;9.55;100.00
20023;BME280;10172;42.054;24.546;2023-03-04T00:24:47;98205.34;;;9.53;100.00
20023;BME280;10172;42.054;24.546;2023-03-04T00:27:13;98211.81;;;9.35;100.00
20023;BME280;10172;42.054;24.546;2023-03-04T00:29:38;98206.53;;;9.21;100.00
20023;BME280;10172;42.054;24.546;2023-03-04T00:32:03;98215.63;;;8.17;100.00
20023;BME280;10172;42.054;24.546;2023-03-04T00:34:30;98233.63;;;8.56;100.00
20023;BME280;10172;42.054;24.546;2023-03-04T00:36:55;98194.81;;;8.69;100.00
20023;BME280;10172;42.054;24.546;2023-03-04T00:39:26;98210.38;;;8.89;100.00
20023;BME280;10172;42.054;24.546;2023-03-04T00:41:52;98197.84;;;8.91;100.00
20023;BME280;10172;42.054;24.546;2023-03-04T00:44:18;98196.88;;;9.06;100.00
20023;BME280;10172;42.054;24.546;2023-03-04T00:46:43;98206.84;;;9.02;100.00
20023;BME280;10172;42.054;24.546;2023-03-04T00:49:08;98243.28;;;9.27;100.00
20023;BME280;10172;42.054;24.546;2023-03-04T00:51:34;98215.81;;;9.14;100.00
20023;BME280;10172;42.054;24.546;2023-03-04T00:53:59;98249.75;;;9.37;100.00
20023;BME280;10172;42.054;24.546;2023-03-04T00:56:25;98218.66;;;9.25;100.00
20023;BME280;10172;42.054;24.546;2023-03-04T00:58:50;98211.94;;;8.49;100.00
20023;BME280;10172;42.054;24.546;2023-03-04T01:01:16;98209.44;;;7.72;100.00
20023;BME280;10172;42.054;24.546;2023-03-04T01:03:41;98188.06;;;6.66;100.00
20023;BME280;10172;42.054;24.546;2023-03-04T01:06:07;98203.78;;;7.00;100.00
20023;BME280;10172;42.054;24.546;2023-03-04T01:08:32;98210.88;;;6.51;100.00
20023;BME280;10172;42.054;24.546;2023-03-04T01:10:58;98207.31;;;6.68;100.00
20023;BME280;10172;42.054;24.546;2023-03-04T01:13:23;98218.50;;;6.06;100.00
20023;BME280;10172;42.054;24.546;2023-03-04T01:15:49;98209.44;;;6.29;100.00
20023;BME280;10172;42.054;24.546;2023-03-04T01:18:14;98213.31;;;5.87;100.00
20023;BME280;10172;42.054;24.546;2023-03-04T01:20:40;98210.03;;;5.11;100.00
20023;BME280;10172;42.054;24.546;2023-03-04T01:23:05;98207.72;;;5.03;100.00
20023;BME280;10172;42.054;24.546;2023-03-04T01:25:31;98207.31;;;4.94;100.00
20023;BME280;10172;42.054;24.546;2023-03-04T01:27:56;98190.22;;;5.02;100.00
20023;BME280;10172;42.054;24.546;2023-03-04T01:30:22;98213.53;;;5.47;100.00
20023;BME280;10172;42.054;24.546;2023-03-04T01:32:47;98199.59;;;5.62;100.00
20023;BME280;10172;42.054;24.546;2023-03-04T01:35:13;98171.53;;;5.95;100.00
20023;BME280;10172;42.054;24.546;2023-03-04T01:37:38;98177.28;;;6.03;100.00
20023;BME280;10172;42.054;24.546;2023-03-04T01:40:04;98191.78;;;5.78;100.00
20023;BME280;10172;42.054;24.546;2023-03-04T01:42:33;98171.03;;;5.53;100.00
20023;BME280;10172;42.054;24.546;2023-03-04T01:44:59;98207.41;;;5.47;100.00
20023;BME280;10172;42.054;24.546;2023-03-04T01:47:28;98212.09;;;5.76;100.00
20023;BME280;10172;42.054;24.546;2023-03-04T01:49:55;98206.81;;;5.94;100.00
20023;BME280;10172;42.054;24.546;2023-03-04T01:52:21;98197.66;;;5.66;100.00
20023;BME280;10172;42.054;24.546;2023-03-04T01:54:47;98156.19;;;5.86;100.00
20023;BME280;10172;42.054;24.546;2023-03-04T01:57:21;98191.50;;;6.84;100.00
20023;BME280;10172;42.054;24.546;2023-03-04T02:00:49;98202.28;;;7.59;100.00
20023;BME280;10172;42.054;24.546;2023-03-04T02:03:07;98192.50;;;6.16;100.00
20023;BME280;10172;42.054;24.546;2023-03-04T02:05:36;98145.03;;;5.63;100.00
20023;BME280;10172;42.054;24.546;2023-03-04T02:08:03;98193.56;;;6.29;100.00
20023;BME280;10172;42.054;24.546;2023-03-04T02:10:29;98180.53;;;6.09;100.00
20023;BME280;10172;42.054;24.546;2023-03-04T02:12:55;98172.81;;;6.38;100.00
20023;BME280;10172;42.054;24.546;2023-03-04T02:15:22;98190.56;;;7.00;100.00
20023;BME280;10172;42.054;24.546;2023-03-04T02:17:48;98175.97;;;7.56;100.00
20023;BME280;10172;42.054;24.546;2023-03-04T02:20:20;98186.22;;;7.46;100.00
20023;BME280;10172;42.054;24.546;2023-03-04T02:23:02;98171.63;;;6.92;100.00
20023;BME280;10172;42.054;24.546;2023-03-04T02:28:39;98154.53;;;6.18;100.00
20023;BME280;10172;42.054;24.546;2023-03-04T02:31:05;98157.97;;;6.36;100.00
20023;BME280;10172;42.054;24.546;2023-03-04T02:33:31;98156.44;;;6.32;100.00
20023;BME280;10172;42.054;24.546;2023-03-04T02:35:57;98185.22;;;6.86;100.00
20023;BME280;10172;42.054;24.546;2023-03-04T02:38:23;98169.28;;;7.19;100.00
20023;BME280;10172;42.054;24.546;2023-03-04T02:40:50;98166.03;;;7.75;100.00
20023;BME280;10172;42.054;24.546;2023-03-04T02:43:18;98140.00;;;7.52;100.00
20023;BME280;10172;42.054;24.546;2023-03-04T02:45:46;98127.94;;;8.21;100.00
20023;BME280;10172;42.054;24.546;2023-03-04T02:48:12;98137.16;;;8.58;100.00
20023;BME280;10172;42.054;24.546;2023-03-04T02:50:45;98179.75;;;8.11;100.00
20023;BME280;10172;42.054;24.546;2023-03-04T02:53:11;98144.59;;;6.39;100.00
20023;BME280;10172;42.054;24.546;2023-03-04T02:55:36;98143.72;;;6.87;100.00
20023;BME280;10172;42.054;24.546;2023-03-04T02:58:02;98148.13;;;6.55;100.00
20023;BME280;10172;42.054;24.546;2023-03-04T03:00:28;98153.56;;;6.19;100.00
20023;BME280;10172;42.054;24.546;2023-03-04T03:02:54;98165.16;;;6.82;100.00
20023;BME280;10172;42.054;24.546;2023-03-04T03:05:22;98189.25;;;6.76;100.00
20023;BME280;10172;42.054;24.546;2023-03-04T03:07:48;98159.44;;;7.37;100.00
20023;BME280;10172;42.054;24.546;2023-03-04T03:10:14;98193.88;;;8.26;100.00
20023;BME280;10172;42.054;24.546;2023-03-04T03:12:39;98175.47;;;7.65;100.00
20023;BME280;10172;42.054;24.546;2023-03-04T03:15:05;98170.53;;;7.43;100.00
20023;BME280;10172;42.054;24.546;2023-03-04T03:17:31;98170.53;;;6.96;100.00
20023;BME280;10172;42.054;24.546;2023-03-04T03:19:56;98141.66;;;6.28;100.00
20023;BME280;10172;42.054;24.546;2023-03-04T03:22:22;98177.38;;;7.32;100.00
20023;BME280;10172;42.054;24.546;2023-03-04T03:24:48;98171.16;;;7.78;100.00
20023;BME280;10172;42.054;24.546;2023-03-04T03:27:13;98160.78;;;8.03;100.00
20023;BME280;10172;42.054;24.546;2023-03-04T03:29:38;98169.06;;;8.43;100.00
20023;BME280;10172;42.054;24.546;2023-03-04T03:32:04;98171.16;;;8.08;100.00
20023;BME280;10172;42.054;24.546;2023-03-04T03:34:30;98173.31;;;7.56;100.00
20023;BME280;10172;42.054;24.546;2023-03-04T03:36:55;98132.13;;;7.36;100.00
20023;BME280;10172;42.054;24.546;2023-03-04T03:39:20;98149.28;;;6.82;100.00
20023;BME280;10172;42.054;24.546;2023-03-04T03:41:46;98141.38;;;5.82;100.00
20023;BME280;10172;42.054;24.546;2023-03-04T03:44:12;98153.91;;;5.96;100.00
20023;BME280;10172;42.054;24.546;2023-03-04T03:46:37;98172.03;;;5.86;100.00
20023;BME280;10172;42.054;24.546;2023-03-04T03:49:03;98176.09;;;5.75;100.00
20023;BME280;10172;42.054;24.546;2023-03-04T03:51:28;98172.44;;;6.29;100.00
20023;BME280;10172;42.054;24.546;2023-03-04T03:53:54;98165.88;;;6.53;100.00
20023;BME280;10172;42.054;24.546;2023-03-04T03:56:19;98187.78;;;6.55;100.00
20023;BME280;10172;42.054;24.546;2023-03-04T03:58:45;98174.44;;;5.55;100.00
20023;BME280;10172;42.054;24.546;2023-03-04T04:01:10;98177.28;;;5.15;100.00
20023;BME280;10172;42.054;24.546;2023-03-04T04:03:35;98181.00;;;5.47;100.00
20023;BME280;10172;42.054;24.546;2023-03-04T04:06:01;98142.59;;;5.24;100.00
20023;BME280;10172;42.054;24.546;2023-03-04T04:08:26;98167.47;;;5.54;100.00
20023;BME280;10172;42.054;24.546;2023-03-04T04:10:52;98171.16;;;5.50;100.00
20023;BME280;10172;42.054;24.546;2023-03-04T04:13:17;98169.78;;;5.43;100.00
20023;BME280;10172;42.054;24.546;2023-03-04T04:15:43;98180.16;;;5.46;100.00
20023;BME280;10172;42.054;24.546;2023-03-04T04:18:08;98174.47;;;5.36;100.00
20023;BME280;10172;42.054;24.546;2023-03-04T04:20:34;98174.72;;;5.32;100.00
20023;BME280;10172;42.054;24.546;2023-03-04T04:23:00;98164.19;;;5.49;100.00
20023;BME280;10172;42.054;24.546;2023-03-04T04:25:25;98178.84;;;5.37;100.00
20023;BME280;10172;42.054;24.546;2023-03-04T04:27:51;98143.41;;;5.43;100.00
20023;BME280;10172;42.054;24.546;2023-03-04T04:30:16;98171.53;;;6.13;100.00
20023;BME280;10172;42.054;24.546;2023-03-04T04:32:42;98181.97;;;5.63;100.00
20023;BME280;10172;42.054;24.546;2023-03-04T04:35:08;98195.41;;;5.58;100.00
20023;BME280;10172;42.054;24.546;2023-03-04T04:37:33;98147.06;;;5.22;100.00
20023;BME280;10172;42.054;24.546;2023-03-04T04:39:58;98160.00;;;5.45;100.00
20023;BME280;10172;42.054;24.546;2023-03-04T04:42:24;98199.03;;;5.91;100.00
20023;BME280;10172;42.054;24.546;2023-03-04T04:44:50;98154.28;;;5.54;100.00
20023;BME280;10172;42.054;24.546;2023-03-04T04:47:16;98200.38;;;5.81;100.00
20023;BME280;10172;42.054;24.546;2023-03-04T04:49:42;98192.56;;;5.44;100.00
20023;BME280;10172;42.054;24.546;2023-03-04T04:52:07;98205.53;;;6.36;100.00
20023;BME280;10172;42.054;24.546;2023-03-04T04:54:33;98176.75;;;6.95;100.00
20023;BME280;10172;42.054;24.546;2023-03-04T04:56:58;98160.25;;;6.59;100.00
20023;BME280;10172;42.054;24.546;2023-03-04T04:59:24;98155.16;;;6.72;100.00
20023;BME280;10172;42.054;24.546;2023-03-04T05:01:49;98188.97;;;7.29;100.00
20023;BME280;10172;42.054;24.546;2023-03-04T05:04:15;98164.94;;;7.63;100.00
20023;BME280;10172;42.054;24.546;2023-03-04T05:06:40;98204.25;;;7.85;100.00
20023;BME280;10172;42.054;24.546;2023-03-04T05:09:06;98176.69;;;8.03;100.00
20023;BME280;10172;42.054;24.546;2023-03-04T05:11:32;98182.84;;;8.33;100.00
20023;BME280;10172;42.054;24.546;2023-03-04T05:13:58;98193.31;;;8.51;100.00
20023;BME280;10172;42.054;24.546;2023-03-04T05:16:23;98213.34;;;8.55;100.00
20023;BME280;10172;42.054;24.546;2023-03-04T05:18:49;98195.22;;;6.64;100.00
20023;BME280;10172;42.054;24.546;2023-03-04T05:21:14;98219.91;;;5.60;100.00
20023;BME280;10172;42.054;24.546;2023-03-04T05:23:42;98209.03;;;6.19;100.00
20023;BME280;10172;42.054;24.546;2023-03-04T05:26:09;98206.47;;;6.35;100.00
20023;BME280;10172;42.054;24.546;2023-03-04T05:28:36;98193.56;;;7.26;100.00
20023;BME280;10172;42.054;24.546;2023-03-04T05:31:02;98211.63;;;7.80;100.00
20023;BME280;10172;42.054;24.546;2023-03-04T05:33:28;98201.63;;;7.85;100.00
20023;BME280;10172;42.054;24.546;2023-03-04T05:35:53;98186.78;;;7.21;100.00
20023;BME280;10172;42.054;24.546;2023-03-04T05:38:20;98207.19;;;7.80;100.00
20023;BME280;10172;42.054;24.546;2023-03-04T05:40:46;98192.84;;;7.69;100.00
20023;BME280;10172;42.054;24.546;2023-03-04T05:43:13;98202.13;;;8.21;100.00
20023;BME280;10172;42.054;24.546;2023-03-04T05:45:39;98191.75;;;8.03;100.00
20023;BME280;10172;42.054;24.546;2023-03-04T05:48:06;98212.63;;;8.23;100.00
20023;BME280;10172;42.054;24.546;2023-03-04T05:50:32;98198.59;;;7.14;100.00
20023;BME280;10172;42.054;24.546;2023-03-04T05:52:58;98205.03;;;5.59;100.00
20023;BME280;10172;42.054;24.546;2023-03-04T05:55:25;98221.31;;;6.20;100.00
20023;BME280;10172;42.054;24.546;2023-03-04T05:57:52;98202.53;;;6.59;100.00
20023;BME280;10172;42.054;24.546;2023-03-04T06:00:17;98199.72;;;7.26;100.00
20023;BME280;10172;42.054;24.546;2023-03-04T06:02:43;98222.22;;;7.80;100.00
20023;BME280;10172;42.054;24.546;2023-03-04T06:05:11;98221.31;;;7.95;100.00
20023;BME280;10172;42.054;24.546;2023-03-04T06:07:37;98212.78;;;6.65;100.00
20023;BME280;10172;42.054;24.546;2023-03-04T06:10:02;98194.94;;;7.33;100.00
20023;BME280;10172;42.054;24.546;2023-03-04T06:12:28;98199.88;;;7.70;100.00
20023;BME280;10172;42.054;24.546;2023-03-04T06:14:54;98231.13;;;7.48;100.00
20023;BME280;10172;42.054;24.546;2023-03-04T06:17:19;98247.81;;;6.19;100.00
20023;BME280;10172;42.054;24.546;2023-03-04T06:19:45;98213.56;;;6.67;100.00
20023;BME280;10172;42.054;24.546;2023-03-04T06:22:11;98230.06;;;6.88;100.00
20023;BME280;10172;42.054;24.546;2023-03-04T06:24:37;98247.19;;;7.45;100.00
20023;BME280;10172;42.054;24.546;2023-03-04T06:27:03;98203.66;;;7.35;100.00
20023;BME280;10172;42.054;24.546;2023-03-04T06:29:28;98235.13;;;6.59;100.00
20023;BME280;10172;42.054;24.546;2023-03-04T06:31:54;98229.75;;;6.94;100.00
20023;BME280;10172;42.054;24.546;2023-03-04T06:34:19;98257.94;;;7.26;100.00
20023;BME280;10172;42.054;24.546;2023-03-04T06:36:45;98262.03;;;7.63;100.00
20023;BME280;10172;42.054;24.546;2023-03-04T06:39:11;98186.72;;;7.06;100.00
20023;BME280;10172;42.054;24.546;2023-03-04T06:41:37;98241.13;;;7.43;100.00
20023;BME280;10172;42.054;24.546;2023-03-04T06:44:03;98271.59;;;7.18;100.00
20023;BME280;10172;42.054;24.546;2023-03-04T06:46:29;98276.34;;;7.28;100.00
20023;BME280;10172;42.054;24.546;2023-03-04T06:48:55;98258.69;;;7.12;100.00
20023;BME280;10172;42.054;24.546;2023-03-04T06:51:20;98212.22;;;6.43;100.00
20023;BME280;10172;42.054;24.546;2023-03-04T06:53:46;98239.88;;;6.36;100.00
20023;BME280;10172;42.054;24.546;2023-03-04T06:56:12;98232.28;;;6.95;100.00
20023;BME280;10172;42.054;24.546;2023-03-04T06:58:41;98259.22;;;7.50;100.00
20023;BME280;10172;42.054;24.546;2023-03-04T07:01:22;98267.22;;;7.96;100.00
20023;BME280;10172;42.054;24.546;2023-03-04T07:03:49;98279.41;;;8.29;100.00
20023;BME280;10172;42.054;24.546;2023-03-04T07:06:17;98236.00;;;8.16;100.00
20023;BME280;10172;42.054;24.546;2023-03-04T07:08:43;98279.53;;;8.42;100.00
20023;BME280;10172;42.054;24.546;2023-03-04T07:11:09;98252.13;;;7.19;100.00
20023;BME280;10172;42.054;24.546;2023-03-04T07:13:35;98263.88;;;7.14;100.00
20023;BME280;10172;42.054;24.546;2023-03-04T07:16:07;98278.16;;;7.74;100.00
20023;BME280;10172;42.054;24.546;2023-03-04T07:18:33;98226.34;;;7.39;100.00
20023;BME280;10172;42.054;24.546;2023-03-04T07:20:59;98230.75;;;7.85;100.00
20023;BME280;10172;42.054;24.546;2023-03-04T07:23:24;98252.94;;;7.98;100.00
20023;BME280;10172;42.054;24.546;2023-03-04T07:25:50;98234.31;;;7.84;100.00
20023;BME280;10172;42.054;24.546;2023-03-04T07:28:16;98231.41;;;8.04;100.00
20023;BME280;10172;42.054;24.546;2023-03-04T07:30:41;98226.44;;;7.98;100.00
20023;BME280;10172;42.054;24.546;2023-03-04T07:33:07;98239.09;;;7.93;100.00
20023;BME280;10172;42.054;24.546;2023-03-04T07:35:33;98254.25;;;8.21;100.00
20023;BME280;10172;42.054;24.546;2023-03-04T07:37:58;98257.06;;;7.88;100.00
20023;BME280;10172;42.054;24.546;2023-03-04T07:40:24;98254.31;;;8.05;100.00
20023;BME280;10172;42.054;24.546;2023-03-04T07:42:51;98273.94;;;8.32;100.00
20023;BME280;10172;42.054;24.546;2023-03-04T07:45:16;98209.72;;;7.82;100.00
20023;BME280;10172;42.054;24.546;2023-03-04T07:47:42;98264.38;;;8.44;100.00
20023;BME280;10172;42.054;24.546;2023-03-04T07:50:09;98229.75;;;6.44;100.00
20023;BME280;10172;42.054;24.546;2023-03-04T07:52:38;98235.56;;;7.47;100.00
20023;BME280;10172;42.054;24.546;2023-03-04T07:55:04;98214.03;;;7.69;100.00
20023;BME280;10172;42.054;24.546;2023-03-04T07:57:30;98218.66;;;8.25;100.00
20023;BME280;10172;42.054;24.546;2023-03-04T07:59:55;98211.31;;;8.30;100.00
20023;BME280;10172;42.054;24.546;2023-03-04T08:02:21;98248.94;;;6.97;100.00
20023;BME280;10172;42.054;24.546;2023-03-04T08:04:46;98231.06;;;5.84;100.00
20023;BME280;10172;42.054;24.546;2023-03-04T08:07:11;98222.97;;;5.15;100.00
20023;BME280;10172;42.054;24.546;2023-03-04T08:09:37;98232.16;;;4.69;100.00
20023;BME280;10172;42.054;24.546;2023-03-04T08:12:02;98253.50;;;5.21;100.00
20023;BME280;10172;42.054;24.546;2023-03-04T08:14:28;98278.13;;;5.57;100.00
20023;BME280;10172;42.054;24.546;2023-03-04T08:16:53;98267.69;;;4.79;100.00
20023;BME280;10172;42.054;24.546;2023-03-04T08:19:20;98280.53;;;5.06;100.00
20023;BME280;10172;42.054;24.546;2023-03-04T08:21:46;98259.00;;;5.52;100.00
20023;BME280;10172;42.054;24.546;2023-03-04T08:24:11;98247.78;;;6.53;100.00
20023;BME280;10172;42.054;24.546;2023-03-04T08:26:40;98252.06;;;6.88;100.00
20023;BME280;10172;42.054;24.546;2023-03-04T08:29:07;98245.41;;;7.30;100.00
20023;BME280;10172;42.054;24.546;2023-03-04T08:31:33;98239.50;;;7.56;100.00
20023;BME280;10172;42.054;24.546;2023-03-04T08:33:59;98274.34;;;7.64;100.00
20023;BME280;10172;42.054;24.546;2023-03-04T08:36:24;98239.63;;;7.84;100.00
20023;BME280;10172;42.054;24.546;2023-03-04T08:38:50;98244.59;;;8.20;100.00
20023;BME280;10172;42.054;24.546;2023-03-04T08:41:15;98236.38;;;8.54;100.00
20023;BME280;10172;42.054;24.546;2023-03-04T08:43:41;98260.38;;;9.09;100.00
20023;BME280;10172;42.054;24.546;2023-03-04T08:46:08;98202.19;;;8.64;100.00
20023;BME280;10172;42.054;24.546;2023-03-04T08:48:33;98247.00;;;9.25;100.00
20023;BME280;10172;42.054;24.546;2023-03-04T08:50:59;98207.13;;;9.12;100.00
20023;BME280;10172;42.054;24.546;2023-03-04T08:53:24;98237.66;;;9.87;100.00
20023;BME280;10172;42.054;24.546;2023-03-04T08:55:51;98241.75;;;10.19;100.00
20023;BME280;10172;42.054;24.546;2023-03-04T08:58:17;98218.09;;;8.50;100.00
20023;BME280;10172;42.054;24.546;2023-03-04T09:00:44;98239.81;;;9.13;100.00
20023;BME280;10172;42.054;24.546;2023-03-04T09:03:13;98250.69;;;10.04;100.00
20023;BME280;10172;42.054;24.546;2023-03-04T09:05:39;98220.72;;;10.02;100.00
20023;BME280;10172;42.054;24.546;2023-03-04T09:08:06;98225.75;;;9.66;100.00
20023;BME280;10172;42.054;24.546;2023-03-04T09:10:32;98234.59;;;9.93;100.00
20023;BME280;10172;42.054;24.546;2023-03-04T09:12:57;98225.88;;;8.67;100.00
20023;BME280;10172;42.054;24.546;2023-03-04T09:15:23;98231.44;;;9.33;100.00
20023;BME280;10172;42.054;24.546;2023-03-04T09:17:48;98191.56;;;8.35;100.00
20023;BME280;10172;42.054;24.546;2023-03-04T09:20:14;98197.97;;;9.30;100.00
20023;BME280;10172;42.054;24.546;2023-03-04T09:22:41;98249.19;;;10.00;100.00
20023;BME280;10172;42.054;24.546;2023-03-04T09:25:07;98221.03;;;9.97;100.00
20023;BME280;10172;42.054;24.546;2023-03-04T09:27:33;98245.03;;;9.00;100.00
20023;BME280;10172;42.054;24.546;2023-03-04T09:29:58;98221.63;;;9.61;100.00
20023;BME280;10172;42.054;24.546;2023-03-04T09:32:24;98227.41;;;10.34;100.00
20023;BME280;10172;42.054;24.546;2023-03-04T09:34:49;98233.25;;;9.32;100.00
20023;BME280;10172;42.054;24.546;2023-03-04T09:37:15;98229.94;;;9.29;100.00
20023;BME280;10172;42.054;24.546;2023-03-04T09:39:40;98218.22;;;8.62;100.00
20023;BME280;10172;42.054;24.546;2023-03-04T09:42:08;98201.06;;;8.54;100.00
20023;BME280;10172;42.054;24.546;2023-03-04T09:44:42;98199.31;;;7.79;100.00
20023;BME280;10172;42.054;24.546;2023-03-04T09:47:13;98226.91;;;9.21;100.00
20023;BME280;10172;42.054;24.546;2023-03-04T09:49:44;98189.44;;;8.26;100.00
20023;BME280;10172;42.054;24.546;2023-03-04T09:54:57;98234.59;;;8.69;100.00
20023;BME280;10172;42.054;24.546;2023-03-04T10:02:52;98239.44;;;7.87;100.00
20023;BME280;10172;42.054;24.546;2023-03-04T10:05:26;98237.63;;;9.19;100.00
20023;BME280;10172;42.054;24.546;2023-03-04T10:07:58;98216.84;;;8.27;100.00
20023;BME280;10172;42.054;24.546;2023-03-04T10:10:36;98212.53;;;8.68;100.00
20023;BME280;10172;42.054;24.546;2023-03-04T10:13:05;98197.72;;;9.88;100.00
20023;BME280;10172;42.054;24.546;2023-03-04T10:15:41;98225.13;;;9.89;100.00
20023;BME280;10172;42.054;24.546;2023-03-04T10:18:27;98222.00;;;9.82;100.00
20023;BME280;10172;42.054;24.546;2023-03-04T10:21:18;98211.25;;;10.62;100.00
20023;BME280;10172;42.054;24.546;2023-03-04T10:23:44;98204.41;;;11.09;100.00
20023;BME280;10172;42.054;24.546;2023-03-04T10:26:15;98188.09;;;11.26;100.00
20023;BME280;10172;42.054;24.546;2023-03-04T10:28:42;98175.03;;;10.98;100.00
20023;BME280;10172;42.054;24.546;2023-03-04T10:33:38;98129.38;;;8.69;100.00
20023;BME280;10172;42.054;24.546;2023-03-04T10:39:09;98150.97;;;9.59;100.00
20023;BME280;10172;42.054;24.546;2023-03-04T10:41:39;98163.03;;;10.16;100.00
20023;BME280;10172;42.054;24.546;2023-03-04T10:46:45;98163.81;;;10.69;100.00
20023;BME280;10172;42.054;24.546;2023-03-04T10:49:13;98171.00;;;9.50;100.00
20023;BME280;10172;42.054;24.546;2023-03-04T10:56:59;98170.81;;;9.93;100.00
20023;BME280;10172;42.054;24.546;2023-03-04T11:02:29;98144.88;;;10.61;100.00
20023;BME280;10172;42.054;24.546;2023-03-04T11:05:05;98119.22;;;10.72;100.00
20023;BME280;10172;42.054;24.546;2023-03-04T11:08:14;98140.63;;;9.54;100.00
20023;BME280;10172;42.054;24.546;2023-03-04T11:10:39;98139.97;;;10.55;100.00
20023;BME280;10172;42.054;24.546;2023-03-04T11:21:02;98109.09;;;10.02;100.00
20023;BME280;10172;42.054;24.546;2023-03-04T11:23:39;98116.81;;;9.80;100.00
20023;BME280;10172;42.054;24.546;2023-03-04T11:26:20;98089.00;;;9.46;100.00
20023;BME280;10172;42.054;24.546;2023-03-04T11:29:19;98108.59;;;10.22;100.00
20023;BME280;10172;42.054;24.546;2023-03-04T11:31:59;98097.50;;;11.15;100.00
20023;BME280;10172;42.054;24.546;2023-03-04T11:34:45;98080.75;;;10.28;100.00
20023;BME280;10172;42.054;24.546;2023-03-04T11:37:20;98105.72;;;10.12;100.00
20023;BME280;10172;42.054;24.546;2023-03-04T11:39:54;98078.94;;;10.41;100.00
20023;BME280;10172;42.054;24.546;2023-03-04T11:43:24;98090.81;;;10.60;100.00
20023;BME280;10172;42.054;24.546;2023-03-04T11:51:09;98079.78;;;11.50;100.00
20023;BME280;10172;42.054;24.546;2023-03-04T11:54:37;98071.81;;;11.85;100.00
20023;BME280;10172;42.054;24.546;2023-03-04T11:56:44;98090.59;;;11.83;100.00
20023;BME280;10172;42.054;24.546;2023-03-04T12:08:28;98081.06;;;10.23;100.00
20023;BME280;10172;42.054;24.546;2023-03-04T12:10:41;98085.03;;;10.92;100.00
20023;BME280;10172;42.054;24.546;2023-03-04T12:16:20;98067.53;;;11.00;100.00
20023;BME280;10172;42.054;24.546;2023-03-04T12:26:52;98055.91;;;9.77;100.00
20023;BME280;10172;42.054;24.546;2023-03-04T12:34:57;98046.91;;;9.92;100.00
20023;BME280;10172;42.054;24.546;2023-03-04T12:37:47;98048.94;;;10.39;100.00
20023;BME280;10172;42.054;24.546;2023-03-04T12:40:18;98049.34;;;11.41;100.00
20023;BME280;10172;42.054;24.546;2023-03-04T12:43:10;98050.78;;;12.04;100.00
20023;BME280;10172;42.054;24.546;2023-03-04T12:51:21;98035.41;;;10.91;100.00
20023;BME280;10172;42.054;24.546;2023-03-04T12:56:48;97997.88;;;11.06;100.00
20023;BME280;10172;42.054;24.546;2023-03-04T12:59:18;98024.44;;;11.19;100.00
20023;BME280;10172;42.054;24.546;2023-03-04T13:01:49;98010.22;;;10.84;100.00
20023;BME280;10172;42.054;24.546;2023-03-04T13:04:24;98019.28;;;11.63;100.00
20023;BME280;10172;42.054;24.546;2023-03-04T13:07:16;98018.56;;;12.18;100.00
20023;BME280;10172;42.054;24.546;2023-03-04T13:09:50;97989.34;;;12.17;100.00
20023;BME280;10172;42.054;24.546;2023-03-04T13:12:20;98019.22;;;10.57;100.00
20023;BME280;10172;42.054;24.546;2023-03-04T13:17:42;98010.47;;;10.19;100.00
20023;BME280;10172;42.054;24.546;2023-03-04T13:20:32;98005.63;;;10.49;100.00
20023;BME280;10172;42.054;24.546;2023-03-04T13:25:30;97991.97;;;9.80;100.00
20023;BME280;10172;42.054;24.546;2023-03-04T13:43:58;97971.25;;;10.46;100.00
20023;BME280;10172;42.054;24.546;2023-03-04T13:54:31;97968.31;;;11.33;100.00
20023;BME280;10172;42.054;24.546;2023-03-04T14:00:15;97955.59;;;9.55;100.00
20023;BME280;10172;42.054;24.546;2023-03-04T14:02:34;97945.75;;;9.70;100.00
20023;BME280;10172;42.054;24.546;2023-03-04T14:05:00;97948.75;;;10.39;100.00
20023;BME280;10172;42.054;24.546;2023-03-04T14:07:31;97938.31;;;10.96;100.00
20023;BME280;10172;42.054;24.546;2023-03-04T14:10:00;97944.41;;;11.09;100.00
20023;BME280;10172;42.054;24.546;2023-03-04T14:12:31;97923.88;;;10.88;100.00
20023;BME280;10172;42.054;24.546;2023-03-04T14:15:03;97941.56;;;10.03;100.00
20023;BME280;10172;42.054;24.546;2023-03-04T14:17:33;97944.75;;;10.21;100.00
20023;BME280;10172;42.054;24.546;2023-03-04T14:20:02;97936.88;;;10.07;100.00
20023;BME280;10172;42.054;24.546;2023-03-04T14:22:38;97937.31;;;9.25;100.00
20023;BME280;10172;42.054;24.546;2023-03-04T14:27:38;97910.88;;;9.24;100.00
20023;BME280;10172;42.054;24.546;2023-03-04T14:30:12;97899.06;;;9.91;100.00
20023;BME280;10172;42.054;24.546;2023-03-04T14:32:43;97933.22;;;10.33;100.00
20023;BME280;10172;42.054;24.546;2023-03-04T14:35:29;97935.13;;;9.70;100.00
20023;BME280;10172;42.054;24.546;2023-03-04T14:38:05;97909.06;;;10.00;100.00
20023;BME280;10172;42.054;24.546;2023-03-04T14:40:41;97914.19;;;9.65;100.00
20023;BME280;10172;42.054;24.546;2023-03-04T14:43:16;97906.91;;;10.05;100.00